createdAt,value
2022-08-07T00:00:31.922Z,3.95
2022-08-07T00:02:58.880Z,4.38
2022-08-07T00:05:27.224Z,4.03
2022-08-07T00:07:59.669Z,4.25
2022-08-07T00:10:31.083Z,4.38
2022-08-07T00:13:01.833Z,3.85
2022-08-07T00:15:37.644Z,4.25
2022-08-07T00:18:19.837Z,3.80
2022-08-07T00:20:51.847Z,4.38
2022-08-07T00:23:21.117Z,4.15
2022-08-07T00:25:58.846Z,4.15
2022-08-07T00:28:33.958Z,4.55
2022-08-07T00:31:12.491Z,4.37
2022-08-07T00:33:47.397Z,4.20
2022-08-07T00:36:17.087Z,5.10
2022-08-07T00:38:43.742Z,4.90
2022-08-07T00:41:15.032Z,4.40
2022-08-07T00:43:59.606Z,4.70
2022-08-07T00:46:30.181Z,4.60
2022-08-07T00:49:03.143Z,4.57
2022-08-07T00:51:56.710Z,5.20
2022-08-07T00:54:19.775Z,4.53
2022-08-07T00:56:49.658Z,4.10
2022-08-07T00:59:17.428Z,4.57
2022-08-07T01:01:48.615Z,4.03
2022-08-07T01:04:21.792Z,4.43
2022-08-07T01:06:51.946Z,4.30
2022-08-07T01:10:03.943Z,4.40
2022-08-07T01:12:28.326Z,4.63
2022-08-07T01:15:01.135Z,4.53
2022-08-07T01:17:32.314Z,5.03
2022-08-07T01:20:05.223Z,4.70
2022-08-07T01:22:36.058Z,4.77
2022-08-07T01:25:40.507Z,4.53
2022-08-07T01:27:51.467Z,4.72
2022-08-07T01:30:20.585Z,4.75
2022-08-07T01:32:54.641Z,4.97
2022-08-07T01:35:24.354Z,4.87
2022-08-07T01:37:51.112Z,4.72
2022-08-07T01:40:23.892Z,5.18
2022-08-07T01:42:58.793Z,5.57
2022-08-07T01:45:37.224Z,5.40
2022-08-07T01:48:18.475Z,4.70
2022-08-07T01:51:24.157Z,4.53
2022-08-07T01:54:12.620Z,5.22
2022-08-07T01:56:57.980Z,4.70
2022-08-07T01:59:36.312Z,5.00
2022-08-07T02:03:11.354Z,5.00
2022-08-07T02:05:08.753Z,5.07
2022-08-07T02:07:57.265Z,5.32
2022-08-07T02:10:26.603Z,5.78
2022-08-07T02:13:01.213Z,5.22
2022-08-07T02:15:29.244Z,4.73
2022-08-07T02:17:59.818Z,5.30
2022-08-07T02:20:30.590Z,5.30
2022-08-07T02:23:03.450Z,5.15
2022-08-07T02:26:30.972Z,4.80
2022-08-07T02:28:25.619Z,4.73
2022-08-07T02:30:55.154Z,5.13
2022-08-07T02:33:42.103Z,4.90
2022-08-07T02:36:28.988Z,5.40
2022-08-07T02:39:15.960Z,4.80
2022-08-07T02:41:50.597Z,5.30
2022-08-07T02:44:18.840Z,4.82
2022-08-07T02:46:52.758Z,4.95
2022-08-07T02:49:56.237Z,4.90
2022-08-07T02:52:10.028Z,4.55
2022-08-07T02:54:43.138Z,5.00
2022-08-07T02:57:14.311Z,4.50
2022-08-07T02:59:55.168Z,4.55
2022-08-07T03:02:30.744Z,4.75
2022-08-07T03:05:00.495Z,4.50
2022-08-07T03:07:58.853Z,4.73
2022-08-07T03:10:24.668Z,4.88
2022-08-07T03:12:52.952Z,4.78
2022-08-07T03:15:30.380Z,5.25
2022-08-07T03:18:09.578Z,4.63
2022-08-07T03:20:45.470Z,4.73
2022-08-07T03:23:19.352Z,4.40
2022-08-07T03:25:46.724Z,4.43
2022-08-07T03:28:37.546Z,4.75
2022-08-07T03:31:26.151Z,4.63
2022-08-07T03:34:10.223Z,4.40
2022-08-07T03:36:48.809Z,4.93
2022-08-07T03:39:46.098Z,4.25
2022-08-07T03:42:07.631Z,4.13
2022-08-07T03:44:39.139Z,5.10
2022-08-07T03:47:13.078Z,5.10
2022-08-07T03:49:52.317Z,4.28
2022-08-07T03:52:27.031Z,4.15
2022-08-07T03:55:07.140Z,4.05
2022-08-07T03:58:34.862Z,3.95
2022-08-07T04:00:29.172Z,3.97
2022-08-07T04:02:58.925Z,4.32
2022-08-07T04:05:39.256Z,4.10
2022-08-07T04:08:16.059Z,4.22
2022-08-07T04:10:54.543Z,4.53
2022-08-07T04:14:10.406Z,4.50
2022-08-07T04:16:31.576Z,4.22
2022-08-07T04:19:01.129Z,4.43
2022-08-07T04:21:33.520Z,4.30
2022-08-07T04:24:07.046Z,4.53
2022-08-07T04:26:40.908Z,4.80
2022-08-07T04:29:12.811Z,4.30
2022-08-07T04:32:03.099Z,4.93
2022-08-07T04:34:33.273Z,4.38
2022-08-07T04:37:07.918Z,5.10
2022-08-07T04:39:35.854Z,4.97
2022-08-07T04:42:07.822Z,4.90
2022-08-07T04:44:54.488Z,5.30
2022-08-07T04:48:00.478Z,4.78
2022-08-07T04:50:52.153Z,5.15
2022-08-07T04:54:02.015Z,5.60
2022-08-07T04:58:11.331Z,5.90
2022-08-07T05:00:09.765Z,6.00
2022-08-07T05:02:37.794Z,6.60
2022-08-07T05:05:52.817Z,5.95
2022-08-07T05:08:59.328Z,7.20
2022-08-07T05:11:24.511Z,6.40
2022-08-07T05:14:52.899Z,6.35
2022-08-07T05:16:52.610Z,5.43
2022-08-07T05:19:44.077Z,5.80
2022-08-07T05:22:26.909Z,6.17
2022-08-07T05:24:57.184Z,6.15
2022-08-07T05:28:03.370Z,6.22
2022-08-07T05:30:30.192Z,6.68
2022-08-07T05:33:03.391Z,6.53
2022-08-07T05:35:41.918Z,6.13
2022-08-07T05:38:13.290Z,6.30
2022-08-07T05:41:01.327Z,5.97
2022-08-07T05:43:43.390Z,6.15
2022-08-07T05:46:31.162Z,6.38
2022-08-07T05:49:00.889Z,5.80
2022-08-07T05:51:39.948Z,7.00
2022-08-07T05:54:30.177Z,6.55
2022-08-07T05:57:03.461Z,5.90
2022-08-07T05:59:47.328Z,5.55
2022-08-07T06:02:30.739Z,5.90
2022-08-07T06:05:05.641Z,5.85
2022-08-07T06:08:13.791Z,6.47
2022-08-07T06:10:23.423Z,6.38
2022-08-07T06:12:50.150Z,5.70
2022-08-07T06:15:22.929Z,5.80
2022-08-07T06:18:09.387Z,5.63
2022-08-07T06:20:51.074Z,5.85
2022-08-07T06:24:37.638Z,5.88
2022-08-07T06:26:14.779Z,5.25
2022-08-07T06:29:08.162Z,5.20
2022-08-07T06:31:46.727Z,5.38
2022-08-07T06:34:20.741Z,5.97
2022-08-07T06:36:51.949Z,5.45
2022-08-07T06:40:13.019Z,5.57
2022-08-07T06:42:37.088Z,6.57
2022-08-07T06:45:18.364Z,6.18
2022-08-07T06:47:48.280Z,5.47
2022-08-07T06:50:27.533Z,5.70
2022-08-07T06:52:59.332Z,5.90
2022-08-07T06:55:47.933Z,6.13
2022-08-07T06:58:21.516Z,5.47
2022-08-07T07:00:53.207Z,6.30
2022-08-07T07:03:40.095Z,5.20
2022-08-07T07:06:11.188Z,5.60
2022-08-07T07:08:39.987Z,5.90
2022-08-07T07:12:07.484Z,5.40
2022-08-07T07:14:08.479Z,5.07
2022-08-07T07:16:49.669Z,5.15
2022-08-07T07:19:55.362Z,5.65
2022-08-07T07:22:36.805Z,5.33
2022-08-07T07:26:30.758Z,5.32
2022-08-07T07:28:29.916Z,4.82
2022-08-07T07:31:22.295Z,5.60
2022-08-07T07:33:56.918Z,5.45
2022-08-07T07:36:32.315Z,5.20
2022-08-07T07:39:04.509Z,5.15
2022-08-07T07:42:02.278Z,5.53
2022-08-07T07:44:25.986Z,4.88
2022-08-07T07:47:04.382Z,5.65
2022-08-07T07:50:35.100Z,5.10
2022-08-07T07:52:37.076Z,5.03
2022-08-07T07:55:06.256Z,4.97
2022-08-07T07:57:53.412Z,5.35
2022-08-07T08:00:29.837Z,5.07
2022-08-07T08:03:08.474Z,5.67
2022-08-07T08:05:50.588Z,3.92
2022-08-07T08:08:34.236Z,4.88
2022-08-07T08:11:08.588Z,5.35
2022-08-07T08:13:54.956Z,4.70
2022-08-07T08:16:37.868Z,4.87
2022-08-07T08:19:17.225Z,5.20
2022-08-07T08:22:11.001Z,4.78
2022-08-07T08:25:19.133Z,4.75
2022-08-07T08:28:03.637Z,5.40
2022-08-07T08:30:34.822Z,4.90
2022-08-07T08:33:10.378Z,4.68
2022-08-07T08:35:50.941Z,5.40
2022-08-07T08:38:29.610Z,5.20
2022-08-07T08:41:16.911Z,5.18
2022-08-07T08:43:58.603Z,5.10
2022-08-07T08:46:53.481Z,4.78
2022-08-07T08:49:46.437Z,4.90
2022-08-07T08:52:53.916Z,4.63
2022-08-07T08:55:54.503Z,4.95
2022-08-07T08:58:59.456Z,5.07
2022-08-07T09:01:46.435Z,4.05
2022-08-07T09:04:26.183Z,4.50
2022-08-07T09:07:11.336Z,4.20
2022-08-07T09:10:11.615Z,4.75
2022-08-07T09:13:06.908Z,4.60
2022-08-07T09:16:21.902Z,4.85
2022-08-07T09:19:53.266Z,4.63
2022-08-07T09:24:27.167Z,5.00
2022-08-07T09:25:17.444Z,4.72
2022-08-07T09:27:59.530Z,4.50
2022-08-07T09:30:56.904Z,4.55
2022-08-07T09:34:00.791Z,4.28
2022-08-07T09:36:35.881Z,4.05
2022-08-07T09:39:53.134Z,5.03
2022-08-07T09:42:33.376Z,4.37
2022-08-07T09:47:25.246Z,4.65
2022-08-07T09:48:30.847Z,4.38
2022-08-07T09:52:15.426Z,4.45
2022-08-07T09:54:18.027Z,4.45
2022-08-07T09:57:21.197Z,5.37
2022-08-07T10:00:07.832Z,3.95
2022-08-07T10:02:55.739Z,4.15
2022-08-07T10:05:59.517Z,4.40
2022-08-07T10:08:46.587Z,4.70
2022-08-07T10:12:03.127Z,4.50
2022-08-07T10:14:22.599Z,4.85
2022-08-07T10:18:01.759Z,4.78
2022-08-07T10:21:19.574Z,4.28
2022-08-07T10:24:05.649Z,4.20
2022-08-07T10:26:51.686Z,3.50
2022-08-07T10:29:53.144Z,3.75
2022-08-07T10:32:52.440Z,4.72
2022-08-07T10:35:53.526Z,4.10
2022-08-07T10:38:46.461Z,3.90
2022-08-07T10:41:52.083Z,3.37
2022-08-07T10:44:28.479Z,3.83
2022-08-07T10:47:26.846Z,4.30
2022-08-07T10:50:12.907Z,3.45
2022-08-07T10:53:08.094Z,4.00
2022-08-07T10:55:50.493Z,4.07
2022-08-07T10:58:45.930Z,3.80
2022-08-07T11:01:35.535Z,3.88
2022-08-07T11:04:34.886Z,3.35
2022-08-07T11:07:59.684Z,3.80
2022-08-07T11:10:52.401Z,3.60
2022-08-07T11:14:44.398Z,3.50
2022-08-07T11:17:02.151Z,3.80
2022-08-07T11:19:53.112Z,3.75
2022-08-07T11:22:37.191Z,3.22
2022-08-07T11:25:27.797Z,3.33
2022-08-07T11:28:04.861Z,3.50
2022-08-07T11:30:52.301Z,3.10
2022-08-07T11:33:54.354Z,3.40
2022-08-07T11:36:49.785Z,3.40
2022-08-07T11:40:00.192Z,3.00
2022-08-07T11:43:05.548Z,3.20
2022-08-07T11:45:54.284Z,3.20
2022-08-07T11:49:50.750Z,3.20
2022-08-07T11:52:14.503Z,3.65
2022-08-07T11:54:54.741Z,3.63
2022-08-07T11:58:00.165Z,3.63
2022-08-07T12:00:31.071Z,3.70
2022-08-07T12:03:45.370Z,3.78
2022-08-07T12:06:57.279Z,3.47
2022-08-07T12:10:05.900Z,3.20
2022-08-07T12:13:11.588Z,3.00
2022-08-07T12:16:06.760Z,2.90
2022-08-07T12:18:45.556Z,3.05
2022-08-07T12:21:55.514Z,3.22
2022-08-07T12:26:06.178Z,2.87
2022-08-07T12:28:15.925Z,2.88
2022-08-07T12:30:56.081Z,2.97
2022-08-07T12:33:30.758Z,3.45
2022-08-07T12:36:15.673Z,2.72
2022-08-07T12:38:57.256Z,2.83
2022-08-07T12:41:42.825Z,3.28
2022-08-07T12:44:17.249Z,2.70
2022-08-07T12:46:57.864Z,2.60
2022-08-07T12:49:58.834Z,2.85
2022-08-07T12:52:46.225Z,3.17
2022-08-07T12:55:41.471Z,2.90
2022-08-07T12:58:18.648Z,3.10
2022-08-07T13:01:23.164Z,3.10
2022-08-07T13:04:05.341Z,3.08
2022-08-07T13:07:01.726Z,3.00
2022-08-07T13:10:20.510Z,3.13
2022-08-07T13:12:56.146Z,3.10
2022-08-07T13:15:37.582Z,2.83
2022-08-07T13:18:35.012Z,3.28
2022-08-07T13:21:13.983Z,2.90
2022-08-07T13:24:11.543Z,3.40
2022-08-07T13:27:03.267Z,2.90
2022-08-07T13:29:42.534Z,3.10
2022-08-07T13:32:51.033Z,2.92
2022-08-07T13:35:25.100Z,3.10
2022-08-07T13:38:20.011Z,2.88
2022-08-07T13:41:06.135Z,3.08
2022-08-07T13:43:44.822Z,2.80
2022-08-07T13:46:28.860Z,3.05
2022-08-07T13:49:05.236Z,3.00
2022-08-07T13:52:16.470Z,2.72
2022-08-07T13:54:42.170Z,2.88
2022-08-07T13:57:24.164Z,2.63
2022-08-07T13:59:55.697Z,2.97
2022-08-07T14:02:33.300Z,2.70
2022-08-07T14:05:14.222Z,2.85
2022-08-07T14:08:00.477Z,3.20
2022-08-07T14:10:42.048Z,2.85
2022-08-07T14:13:16.870Z,2.75
2022-08-07T14:15:53.447Z,2.83
2022-08-07T14:18:30.671Z,2.50
2022-08-07T14:22:03.490Z,2.70
2022-08-07T14:24:17.876Z,2.67
2022-08-07T14:27:02.519Z,2.67
2022-08-07T14:30:05.196Z,2.20
2022-08-07T14:32:43.036Z,2.60
2022-08-07T14:35:44.913Z,2.67
2022-08-07T14:38:09.579Z,3.00
2022-08-07T14:40:58.972Z,3.08
2022-08-07T14:43:55.776Z,2.93
2022-08-07T14:46:20.935Z,2.88
2022-08-07T14:49:55.670Z,2.70
2022-08-07T14:52:04.441Z,2.50
2022-08-07T14:54:44.821Z,2.40
2022-08-07T14:57:18.879Z,2.40
2022-08-07T15:00:03.198Z,2.33
2022-08-07T15:02:37.396Z,3.05
2022-08-07T15:07:58.255Z,2.50
2022-08-07T15:10:30.612Z,2.20
2022-08-07T15:13:11.376Z,2.42
2022-08-07T15:15:52.764Z,2.40
2022-08-07T15:18:33.646Z,2.47
2022-08-07T15:21:44.786Z,2.67
2022-08-07T15:25:13.969Z,2.30
2022-08-07T15:27:07.200Z,2.45
2022-08-07T15:32:39.021Z,2.65
2022-08-07T15:35:14.559Z,2.70
2022-08-07T15:38:04.663Z,2.10
2022-08-07T15:40:38.447Z,2.50
2022-08-07T15:46:31.902Z,2.33
2022-08-07T15:49:13.330Z,2.30
2022-08-07T15:54:39.471Z,2.55
2022-08-07T15:57:27.982Z,2.60
2022-08-07T16:00:07.339Z,2.10
2022-08-07T16:02:47.701Z,2.20
2022-08-07T16:05:23.116Z,2.20
2022-08-07T16:08:33.399Z,2.50
2022-08-07T16:11:28.980Z,2.30
2022-08-07T16:14:11.564Z,2.17
2022-08-07T16:16:51.081Z,2.47
2022-08-07T16:19:42.435Z,2.27
2022-08-07T16:22:54.441Z,2.13
2022-08-07T16:25:59.693Z,4.03
2022-08-07T16:30:06.618Z,2.00
2022-08-07T16:31:57.634Z,2.30
2022-08-07T16:34:39.547Z,2.30
2022-08-07T16:38:06.118Z,2.40
2022-08-07T16:40:28.768Z,2.30
2022-08-07T16:43:17.778Z,2.08
2022-08-07T16:47:04.884Z,2.20
2022-08-07T16:50:26.771Z,2.27
2022-08-07T16:53:20.639Z,2.17
2022-08-07T16:56:02.715Z,2.78
2022-08-07T16:59:11.095Z,2.25
2022-08-07T17:01:55.609Z,2.00
2022-08-07T17:04:51.086Z,2.20
2022-08-07T17:07:57.738Z,2.10
2022-08-07T17:10:36.852Z,2.20
2022-08-07T17:13:05.653Z,2.50
2022-08-07T17:15:54.957Z,2.10
2022-08-07T17:19:00.723Z,2.10
2022-08-07T17:21:51.054Z,1.98
2022-08-07T17:25:10.250Z,2.40
2022-08-07T17:28:00.457Z,2.22
2022-08-07T17:30:35.582Z,2.05
2022-08-07T17:34:09.491Z,2.23
2022-08-07T17:36:13.593Z,2.25
2022-08-07T17:38:59.053Z,2.20
2022-08-07T17:42:02.616Z,2.25
2022-08-07T17:44:45.540Z,2.25
2022-08-07T17:47:38.175Z,1.97
2022-08-07T17:50:19.388Z,2.10
2022-08-07T17:52:58.912Z,2.05
2022-08-07T17:55:54.844Z,1.95
2022-08-07T17:58:46.212Z,2.15
2022-08-07T18:01:22.611Z,2.27
2022-08-07T18:04:17.188Z,2.20
2022-08-07T18:07:21.005Z,1.95
2022-08-07T18:10:06.273Z,2.20
2022-08-07T18:13:09.920Z,1.85
2022-08-07T18:16:05.100Z,2.07
2022-08-07T18:21:03.458Z,2.17
2022-08-07T18:22:15.229Z,2.25
2022-08-07T18:24:51.282Z,2.20
2022-08-07T18:27:48.973Z,2.47
2022-08-07T18:30:36.767Z,2.30
2022-08-07T18:33:34.609Z,2.30
2022-08-07T18:36:33.227Z,2.08
2022-08-07T18:40:05.075Z,2.20
2022-08-07T18:42:44.797Z,2.65
2022-08-07T18:45:44.954Z,2.23
2022-08-07T18:48:52.141Z,2.05
2022-08-07T18:51:05.019Z,2.33
2022-08-07T18:53:54.160Z,2.20
2022-08-07T18:56:58.274Z,2.45
2022-08-07T19:00:33.521Z,1.80
2022-08-07T19:03:20.656Z,2.25
2022-08-07T19:06:18.203Z,2.50
2022-08-07T19:09:09.056Z,2.40
2022-08-07T19:12:17.926Z,2.13
2022-08-07T19:15:04.041Z,2.30
2022-08-07T19:18:03.646Z,2.10
2022-08-07T19:21:08.678Z,2.00
2022-08-07T19:23:57.033Z,2.38
2022-08-07T19:26:47.950Z,2.45
2022-08-07T19:31:00.299Z,2.50
2022-08-07T19:32:28.892Z,2.25
2022-08-07T19:35:09.964Z,2.47
2022-08-07T19:37:56.623Z,2.28
2022-08-07T19:40:34.708Z,2.47
2022-08-07T19:43:21.676Z,2.20
2022-08-07T19:46:07.085Z,2.20
2022-08-07T19:48:54.088Z,2.40
2022-08-07T19:51:52.250Z,2.20
2022-08-07T19:54:33.548Z,2.55
2022-08-07T19:58:02.106Z,2.23
2022-08-07T19:59:59.167Z,2.35
2022-08-07T20:02:39.840Z,2.70
2022-08-07T20:05:28.145Z,2.40
2022-08-07T20:08:02.970Z,2.70
2022-08-07T20:10:51.998Z,2.47
2022-08-07T20:13:34.089Z,2.22
2022-08-07T20:16:06.772Z,2.65
2022-08-07T20:18:46.743Z,2.30
2022-08-07T20:21:21.719Z,2.20
2022-08-07T20:23:58.063Z,2.67
2022-08-07T20:26:44.712Z,2.38
2022-08-07T20:29:47.228Z,2.13
2022-08-07T20:32:04.874Z,2.42
2022-08-07T20:34:50.114Z,2.90
2022-08-07T20:37:23.224Z,2.67
2022-08-07T20:40:02.774Z,2.55
2022-08-07T20:42:37.814Z,2.50
2022-08-07T20:45:32.789Z,2.90
2022-08-07T20:47:59.958Z,2.40
2022-08-07T20:50:29.056Z,2.72
2022-08-07T20:52:59.821Z,2.88
2022-08-07T20:55:27.279Z,2.67
2022-08-07T20:58:03.768Z,2.95
2022-08-07T21:00:46.175Z,2.73
2022-08-07T21:03:19.145Z,2.97
2022-08-07T21:06:03.677Z,2.90
2022-08-07T21:09:14.024Z,2.58
2022-08-07T21:11:50.434Z,2.70
2022-08-07T21:14:33.643Z,2.43
2022-08-07T21:18:00.706Z,2.70
2022-08-07T21:20:05.652Z,2.60
2022-08-07T21:22:45.038Z,2.60
2022-08-07T21:25:38.889Z,2.35
2022-08-07T21:28:47.985Z,2.40
2022-08-07T21:31:49.249Z,2.30
2022-08-07T21:34:32.932Z,2.95
2022-08-07T21:37:02.653Z,2.30
2022-08-07T21:40:03.680Z,2.90
2022-08-07T21:42:54.756Z,3.13
2022-08-07T21:46:10.300Z,2.70
2022-08-07T21:48:28.972Z,2.92
2022-08-07T21:51:25.124Z,2.65
2022-08-07T21:54:00.914Z,2.97
2022-08-07T21:56:40.239Z,2.87
2022-08-07T22:00:05.317Z,2.90
2022-08-07T22:02:41.201Z,3.17
2022-08-07T22:05:22.010Z,2.80
2022-08-07T22:08:01.673Z,2.85
2022-08-07T22:10:35.499Z,2.90
2022-08-07T22:13:09.276Z,3.00
2022-08-07T22:16:44.260Z,2.80
2022-08-07T22:18:57.898Z,2.90
2022-08-07T22:22:05.012Z,2.92
2022-08-07T22:24:41.071Z,3.33
2022-08-07T22:28:07.961Z,3.33
2022-08-07T22:30:13.048Z,2.88
2022-08-07T22:32:55.470Z,2.90
2022-08-07T22:35:23.465Z,2.80
2022-08-07T22:38:08.049Z,2.97
2022-08-07T22:40:53.598Z,3.20
2022-08-07T22:43:43.781Z,2.97
2022-08-07T22:46:46.951Z,3.00
2022-08-07T22:50:02.226Z,3.20
2022-08-07T22:52:51.655Z,2.90
2022-08-07T22:55:59.380Z,3.10
2022-08-07T22:58:51.370Z,3.30
2022-08-07T23:01:27.047Z,3.10
2022-08-07T23:04:29.833Z,2.88
2022-08-07T23:07:33.650Z,2.87
2022-08-07T23:10:37.379Z,2.88
2022-08-07T23:13:48.833Z,3.10
2022-08-07T23:17:02.717Z,3.00
2022-08-07T23:19:59.963Z,3.05
2022-08-07T23:22:32.623Z,3.20
2022-08-07T23:25:04.458Z,3.00
2022-08-07T23:28:20.268Z,3.17
2022-08-07T23:31:06.863Z,3.30
2022-08-07T23:34:36.192Z,3.47
2022-08-07T23:36:43.205Z,3.27
2022-08-07T23:39:21.982Z,3.10
2022-08-07T23:42:04.817Z,3.45
2022-08-07T23:44:53.387Z,3.15
2022-08-07T23:47:47.930Z,3.28
2022-08-07T23:50:42.423Z,3.33
2022-08-07T23:53:49.614Z,3.55
2022-08-07T23:56:55.731Z,3.50
